Airfield :
LOGIN :

Register | Disclaimer

   EN    FR    IT 

 










Legend :    VFR   Marginal VFR   IFR   Intensive IFR   Very Intensive IFR
Visi :
Ceiling :
>= 8 km
>= 3000ft
5 to 8 km
1000 to 3000 ft
1500m to 5 km
500 to 1000 ft
800 to 1500m
200 to 500 ft
< 800m
< 200 ft
Symbols :   Thunderstorms  Fog  Heavy snow  Heavy precipitations  Wind > 20 kt
SIGMETs :     Misc.  Thunderstorms  Icing  Turbulence  Mountain Waves  Volcanic Ashes







- Airport Elevation : 314 ft
- IATA code : OTP


LROP - Bucarest - Henri Coanda

CURRENT METAR :
  • 100500Z 25004KT 220V280 0100 R08R/0550U R26L/0550N R08L/0550N R26R/0550N FZFG VV001 M02/M02 Q1006 R88/29//95 NOSIG

EXPIRED METARs :
  • 100430Z VRB02KT 0200 R08R/0450N R26L/0500N R08L/0500N R26R/0600N FZFG VV002 M02/M02 Q1006 R88/29//95 NOSIG
  • 100400Z VRB02KT 0150 R08R/0400N R26L/0400N R08L/0500N R26R/0450N FZFG VV001 M01/M02 Q1005 R88/29//95 NOSIG
  • 100330Z 28005KT 0150 R08R/0450N R26L/0500N R08L/0450N R26R/0450N FZFG VV002 M02/M02 Q1005 R88/29//95 NOSIG
  • 100300Z 27004KT 0150 R08R/0450N R26L/0450N R08L/0450N R26R/0450N FZFG VV002 M01/M02 Q1005 R88/29//95 NOSIG
  • 100230Z 25004KT 0150 R08R/0500 R26L/0450 R08L/0500N R26R/0500N FZFG VV002 M01/M02 Q1005 R88/29//95 NOSIG

TAF TAF LROP
Valid from the 10 at 00:00 until the 11 at 00:00 UTC


092300Z 1000/1024 26006KT 0350 FG VV002
TEMPO 1000/1004 0150 FG VV001
BECMG 1004/1006 0800
BECMG 1006/1008 3000 BR BKN005
TEMPO 1009/1014 5000 -RADZ BR BKN010
BECMG 1016/1018 1500 BR OVC002
TEMPO 1020/1024 0600 FG
No reported NOTAMs for that airfield.



MET'MAP, your aeronautical weather chart ! - Copyright ORBIFLY December 2007 - Disclaimer

ORBIFLY MET'MAP TEAM :

Programming & Development : Alexandra Zaïnal
Concept & Development : Baudouin d'Aumeries
Co-Development & Prog : Marc-Olivier Méhu
Technical & hardware support : Manuel Goepfert

Contact : metmap@orbifly.com




SOURCES & CREDITS :

   NOAA